createdAt,value
2019-03-08T00:00:03.690Z,19.63
2019-03-08T00:00:44.283Z,19.62
2019-03-08T00:01:24.898Z,19.69
2019-03-08T00:02:05.498Z,19.51
2019-03-08T00:02:46.103Z,19.58
2019-03-08T00:03:26.693Z,19.46
2019-03-08T00:04:07.298Z,19.54
2019-03-08T00:04:47.893Z,19.61
2019-03-08T00:05:28.508Z,19.65
2019-03-08T00:06:09.103Z,19.59
2019-03-08T00:06:49.681Z,19.65
2019-03-08T00:07:30.276Z,19.61
2019-03-08T00:08:10.867Z,19.51
2019-03-08T00:08:51.460Z,19.56
2019-03-08T00:09:32.046Z,19.55
2019-03-08T00:10:12.654Z,19.58
2019-03-08T00:10:53.243Z,19.58
2019-03-08T00:11:33.824Z,19.61
2019-03-08T00:12:14.440Z,19.54
2019-03-08T00:12:55.031Z,19.54
2019-03-08T00:13:35.622Z,19.54
2019-03-08T00:14:16.228Z,19.58
2019-03-08T00:14:56.856Z,19.61
2019-03-08T00:15:37.464Z,19.61
2019-03-08T00:16:18.073Z,19.56
2019-03-08T00:16:58.666Z,19.54
2019-03-08T00:17:39.288Z,19.62
2019-03-08T00:18:19.879Z,19.54
2019-03-08T00:19:00.480Z,19.61
2019-03-08T00:19:41.090Z,19.61
2019-03-08T00:20:21.693Z,19.51
2019-03-08T00:21:02.284Z,19.61
2019-03-08T00:21:42.928Z,19.59
2019-03-08T00:22:23.532Z,19.54
2019-03-08T00:23:04.161Z,19.55
2019-03-08T00:23:44.768Z,19.56
2019-03-08T00:24:25.404Z,19.59
2019-03-08T00:25:06.098Z,19.55
2019-03-08T00:25:46.769Z,19.48
2019-03-08T00:26:27.370Z,19.59
2019-03-08T00:27:07.964Z,19.56
2019-03-08T00:27:48.571Z,19.61
2019-03-08T00:28:29.176Z,19.5
2019-03-08T00:29:09.764Z,19.47
2019-03-08T00:29:50.362Z,19.54
2019-03-08T00:30:30.984Z,19.55
2019-03-08T00:31:11.580Z,19.58
2019-03-08T00:31:52.174Z,19.56
2019-03-08T00:32:32.800Z,19.47
2019-03-08T00:33:14.929Z,19.55
2019-03-08T00:33:55.534Z,19.59
2019-03-08T00:34:36.121Z,19.56
2019-03-08T00:35:16.782Z,19.55
2019-03-08T00:35:57.384Z,19.61
2019-03-08T00:36:39.814Z,19.51
2019-03-08T00:37:20.393Z,19.56
2019-03-08T00:38:00.985Z,19.51
2019-03-08T00:38:41.599Z,19.51
2019-03-08T00:39:22.223Z,19.54
2019-03-08T00:40:02.867Z,19.56
2019-03-08T00:40:43.465Z,19.51
2019-03-08T00:41:24.088Z,19.55
2019-03-08T00:42:04.702Z,19.54
2019-03-08T00:42:45.312Z,19.43
2019-03-08T00:43:25.919Z,19.51
2019-03-08T00:44:06.522Z,19.47
2019-03-08T00:44:47.148Z,19.55
2019-03-08T00:45:27.766Z,19.54
2019-03-08T00:46:08.416Z,19.58
2019-03-08T00:46:49.014Z,19.58
2019-03-08T00:47:29.610Z,19.47
2019-03-08T00:48:10.202Z,19.51
2019-03-08T00:48:50.798Z,19.47
2019-03-08T00:49:31.406Z,19.55
2019-03-08T00:50:11.998Z,19.44
2019-03-08T00:50:52.594Z,19.58
2019-03-08T00:51:33.188Z,19.59
2019-03-08T00:52:13.780Z,19.59
2019-03-08T00:52:54.383Z,19.59
2019-03-08T00:53:35.030Z,19.5
2019-03-08T00:54:15.627Z,19.61
2019-03-08T00:54:56.214Z,19.47
2019-03-08T00:55:38.334Z,19.56
2019-03-08T00:56:18.976Z,19.55
2019-03-08T00:56:59.566Z,19.55
2019-03-08T00:57:40.169Z,19.61
2019-03-08T00:58:20.774Z,19.55
2019-03-08T00:59:01.380Z,19.44
2019-03-08T00:59:41.976Z,19.5
2019-03-08T01:00:22.593Z,19.54
2019-03-08T01:01:03.200Z,19.5
2019-03-08T01:01:43.836Z,19.59
2019-03-08T01:02:26.336Z,19.43
2019-03-08T01:03:06.931Z,19.56
2019-03-08T01:03:47.526Z,19.55
2019-03-08T01:04:28.158Z,19.43
2019-03-08T01:05:08.760Z,19.54
2019-03-08T01:05:49.376Z,19.58
2019-03-08T01:06:30.020Z,19.51
2019-03-08T01:07:11.050Z,19.48
2019-03-08T01:07:51.920Z,19.51
2019-03-08T01:08:32.556Z,19.51
2019-03-08T01:09:13.157Z,19.51
2019-03-08T01:09:53.734Z,19.5
2019-03-08T01:10:34.320Z,19.43
2019-03-08T01:11:14.922Z,19.58
2019-03-08T01:11:55.522Z,19.43
2019-03-08T01:12:36.108Z,19.5
2019-03-08T01:13:16.705Z,19.5
2019-03-08T01:13:57.297Z,19.54
2019-03-08T01:14:37.899Z,19.55
2019-03-08T01:15:18.484Z,19.55
2019-03-08T01:15:59.064Z,19.54
2019-03-08T01:16:39.646Z,19.5
2019-03-08T01:17:20.246Z,19.58
2019-03-08T01:18:00.842Z,19.41
2019-03-08T01:18:41.438Z,19.41
2019-03-08T01:19:22.041Z,19.51
2019-03-08T01:20:02.646Z,19.48
2019-03-08T01:20:43.237Z,19.51
2019-03-08T01:21:25.567Z,19.41
2019-03-08T01:22:06.160Z,19.58
2019-03-08T01:22:46.740Z,19.48
2019-03-08T01:23:27.355Z,19.43
2019-03-08T01:24:07.972Z,19.55
2019-03-08T01:24:48.560Z,19.47
2019-03-08T01:25:29.150Z,19.56
2019-03-08T01:26:09.736Z,19.48
2019-03-08T01:26:50.335Z,19.54
2019-03-08T01:27:30.932Z,19.54
2019-03-08T01:28:11.526Z,19.47
2019-03-08T01:28:52.136Z,19.43
2019-03-08T01:29:32.726Z,19.47
2019-03-08T01:30:13.314Z,19.43
2019-03-08T01:30:53.919Z,19.51
2019-03-08T01:31:34.504Z,19.48
2019-03-08T01:32:15.110Z,19.48
2019-03-08T01:32:55.698Z,19.43
2019-03-08T01:33:36.298Z,19.48
2019-03-08T01:34:16.882Z,19.46
2019-03-08T01:34:57.484Z,19.48
2019-03-08T01:35:38.067Z,19.43
2019-03-08T01:36:18.785Z,19.44
2019-03-08T01:37:01.316Z,19.54
2019-03-08T01:37:41.904Z,19.46
2019-03-08T01:38:22.490Z,19.51
2019-03-08T01:39:03.107Z,19.48
2019-03-08T01:39:43.702Z,19.47
2019-03-08T01:40:24.327Z,19.44
2019-03-08T01:41:04.912Z,19.41
2019-03-08T01:41:45.514Z,19.4
2019-03-08T01:42:26.113Z,19.43
2019-03-08T01:43:06.702Z,19.43
2019-03-08T01:43:47.282Z,19.43
2019-03-08T01:44:27.888Z,19.48
2019-03-08T01:45:08.460Z,19.46
2019-03-08T01:45:49.054Z,19.4
2019-03-08T01:46:31.460Z,19.43
2019-03-08T01:47:12.058Z,19.47
2019-03-08T01:47:52.672Z,19.4
2019-03-08T01:48:33.322Z,19.44
2019-03-08T01:49:13.924Z,19.51
2019-03-08T01:49:54.526Z,19.44
2019-03-08T01:50:35.114Z,19.43
2019-03-08T01:51:15.771Z,19.4
2019-03-08T01:51:56.294Z,19.4
2019-03-08T01:52:36.900Z,19.44
2019-03-08T01:53:17.499Z,19.47
2019-03-08T01:53:58.086Z,19.46
2019-03-08T01:54:38.680Z,19.44
2019-03-08T01:55:19.287Z,19.47
2019-03-08T01:55:59.880Z,19.43
2019-03-08T01:56:40.484Z,19.43
2019-03-08T01:57:21.106Z,19.46
2019-03-08T01:58:01.724Z,19.43
2019-03-08T01:58:42.316Z,19.46
2019-03-08T01:59:22.934Z,19.43
2019-03-08T02:00:03.526Z,19.4
2019-03-08T02:00:44.130Z,19.44
2019-03-08T02:01:26.466Z,19.46
2019-03-08T02:02:07.059Z,19.43
2019-03-08T02:02:47.652Z,19.48
2019-03-08T02:03:28.282Z,19.4
2019-03-08T02:04:08.899Z,19.41
2019-03-08T02:04:49.494Z,19.41
2019-03-08T02:05:30.090Z,19.44
2019-03-08T02:06:10.797Z,19.44
2019-03-08T02:06:51.378Z,19.41
2019-03-08T02:07:33.214Z,19.47
2019-03-08T02:08:12.898Z,19.47
2019-03-08T02:08:53.494Z,19.43
2019-03-08T02:09:34.080Z,19.48
2019-03-08T02:10:14.717Z,19.41
2019-03-08T02:10:55.350Z,19.46
2019-03-08T02:11:35.960Z,19.43
2019-03-08T02:12:16.574Z,19.44
2019-03-08T02:12:57.161Z,19.43
2019-03-08T02:13:37.740Z,19.5
2019-03-08T02:14:18.366Z,19.43
2019-03-08T02:14:58.960Z,19.48
2019-03-08T02:15:39.576Z,19.43
2019-03-08T02:16:20.164Z,19.43
2019-03-08T02:17:00.765Z,19.41
2019-03-08T02:17:41.386Z,19.47
2019-03-08T02:18:21.988Z,19.43
2019-03-08T02:19:02.575Z,19.46
2019-03-08T02:19:43.160Z,19.4
2019-03-08T02:20:23.754Z,19.43
2019-03-08T02:21:06.860Z,19.43
2019-03-08T02:21:44.948Z,19.41
2019-03-08T02:22:25.540Z,19.4
2019-03-08T02:23:06.126Z,19.39
2019-03-08T02:23:46.768Z,19.4
2019-03-08T02:24:27.341Z,19.39
2019-03-08T02:25:07.994Z,19.4
2019-03-08T02:25:48.618Z,19.46
2019-03-08T02:26:29.222Z,19.4
2019-03-08T02:27:09.812Z,19.44
2019-03-08T02:27:50.402Z,19.41
2019-03-08T02:28:31.026Z,19.43
2019-03-08T02:29:11.617Z,19.41
2019-03-08T02:29:52.250Z,19.47
2019-03-08T02:30:32.857Z,19.46
2019-03-08T02:31:13.460Z,19.46
2019-03-08T02:31:54.073Z,19.37
2019-03-08T02:32:34.671Z,19.4
2019-03-08T02:33:15.271Z,19.4
2019-03-08T02:33:55.870Z,19.43
2019-03-08T02:34:36.482Z,19.37
2019-03-08T02:35:17.141Z,19.33
2019-03-08T02:35:57.729Z,19.39
2019-03-08T02:36:38.317Z,19.39
2019-03-08T02:37:20.890Z,19.36
2019-03-08T02:38:01.530Z,19.33
2019-03-08T02:38:42.131Z,19.44
2019-03-08T02:39:22.739Z,19.41
2019-03-08T02:40:03.332Z,19.32
2019-03-08T02:40:43.937Z,19.39
2019-03-08T02:41:24.542Z,19.41
2019-03-08T02:42:05.141Z,19.39
2019-03-08T02:42:45.742Z,19.39
2019-03-08T02:43:26.352Z,19.4
2019-03-08T02:44:06.936Z,19.32
2019-03-08T02:44:47.568Z,19.39
2019-03-08T02:45:28.176Z,19.36
2019-03-08T02:46:08.773Z,19.41
2019-03-08T02:46:49.397Z,19.33
2019-03-08T02:47:29.985Z,19.4
2019-03-08T02:48:10.578Z,19.4
2019-03-08T02:48:51.176Z,19.36
2019-03-08T02:49:31.771Z,19.33
2019-03-08T02:50:12.364Z,19.36
2019-03-08T02:50:52.942Z,19.36
2019-03-08T02:51:33.540Z,19.31
2019-03-08T02:52:14.125Z,19.36
2019-03-08T02:52:54.721Z,19.37
2019-03-08T02:53:35.310Z,19.29
2019-03-08T02:54:15.936Z,19.41
2019-03-08T02:54:56.536Z,19.31
2019-03-08T02:55:37.214Z,19.26
2019-03-08T02:56:17.809Z,19.31
2019-03-08T02:56:58.394Z,19.37
2019-03-08T02:57:38.985Z,19.36
2019-03-08T02:58:19.580Z,19.36
2019-03-08T02:59:00.162Z,19.28
2019-03-08T02:59:40.763Z,19.39
2019-03-08T03:00:21.357Z,19.37
2019-03-08T03:01:01.956Z,19.39
2019-03-08T03:01:42.566Z,19.29
2019-03-08T03:02:25.119Z,19.31
2019-03-08T03:03:05.753Z,19.4
2019-03-08T03:03:46.368Z,19.4
2019-03-08T03:04:27.026Z,19.32
2019-03-08T03:05:07.605Z,19.37
2019-03-08T03:05:48.201Z,19.28
2019-03-08T03:06:28.824Z,19.28
2019-03-08T03:07:09.578Z,19.28
2019-03-08T03:07:50.166Z,19.41
2019-03-08T03:08:30.789Z,19.41
2019-03-08T03:09:11.384Z,19.29
2019-03-08T03:09:51.977Z,19.33
2019-03-08T03:10:32.563Z,19.4
2019-03-08T03:11:13.166Z,19.32
2019-03-08T03:11:53.770Z,19.39
2019-03-08T03:12:34.368Z,19.31
2019-03-08T03:13:14.980Z,19.25
2019-03-08T03:13:55.611Z,19.29
2019-03-08T03:14:36.240Z,19.33
2019-03-08T03:15:16.836Z,19.39
2019-03-08T03:15:57.445Z,19.31
2019-03-08T03:16:38.040Z,19.25
2019-03-08T03:17:18.628Z,19.33
2019-03-08T03:17:59.228Z,19.29
2019-03-08T03:18:41.412Z,19.25
2019-03-08T03:19:22.006Z,19.25
2019-03-08T03:20:02.639Z,19.28
2019-03-08T03:20:43.287Z,19.26
2019-03-08T03:21:23.902Z,19.31
2019-03-08T03:22:04.494Z,19.32
2019-03-08T03:22:45.132Z,19.23
2019-03-08T03:23:25.724Z,19.29
2019-03-08T03:24:06.334Z,19.26
2019-03-08T03:24:46.978Z,19.28
2019-03-08T03:25:29.519Z,19.29
2019-03-08T03:26:10.154Z,19.28
2019-03-08T03:26:50.737Z,19.28
2019-03-08T03:27:31.410Z,19.32
2019-03-08T03:28:11.973Z,19.28
2019-03-08T03:28:52.564Z,19.28
2019-03-08T03:29:33.152Z,19.32
2019-03-08T03:30:13.757Z,19.26
2019-03-08T03:30:54.347Z,19.29
2019-03-08T03:31:34.957Z,19.32
2019-03-08T03:32:15.535Z,19.31
2019-03-08T03:32:56.127Z,19.29
2019-03-08T03:33:36.720Z,19.25
2019-03-08T03:34:17.316Z,19.29
2019-03-08T03:34:57.927Z,19.29
2019-03-08T03:35:38.580Z,19.28
2019-03-08T03:36:19.188Z,19.26
2019-03-08T03:36:59.800Z,19.25
2019-03-08T03:37:40.390Z,19.26
2019-03-08T03:38:20.993Z,19.26
2019-03-08T03:39:01.602Z,19.26
2019-03-08T03:39:42.207Z,19.25
2019-03-08T03:40:24.267Z,19.25
2019-03-08T03:41:04.890Z,19.29
2019-03-08T03:41:45.480Z,19.22
2019-03-08T03:42:26.072Z,19.26
2019-03-08T03:43:06.686Z,19.28
2019-03-08T03:43:49.148Z,19.33
2019-03-08T03:44:29.740Z,19.33
2019-03-08T03:45:10.340Z,19.29
2019-03-08T03:45:50.956Z,19.29
2019-03-08T03:46:31.561Z,19.25
2019-03-08T03:47:12.147Z,19.29
2019-03-08T03:47:52.760Z,19.23
2019-03-08T03:48:33.363Z,19.28
2019-03-08T03:49:13.952Z,19.23
2019-03-08T03:49:54.545Z,19.33
2019-03-08T03:50:35.181Z,19.29
2019-03-08T03:51:17.398Z,19.23
2019-03-08T03:51:57.996Z,19.29
2019-03-08T03:52:38.599Z,19.26
2019-03-08T03:53:19.195Z,19.28
2019-03-08T03:53:59.794Z,19.25
2019-03-08T03:54:40.394Z,19.32
2019-03-08T03:55:21.005Z,19.23
2019-03-08T03:56:01.608Z,19.23
2019-03-08T03:56:42.211Z,19.25
2019-03-08T03:57:22.800Z,19.23
2019-03-08T03:58:03.394Z,19.25
2019-03-08T03:58:43.994Z,19.23
2019-03-08T03:59:26.402Z,19.28
2019-03-08T04:00:07.008Z,19.25
2019-03-08T04:00:47.649Z,19.23
2019-03-08T04:01:28.217Z,19.25
2019-03-08T04:02:08.817Z,19.23
2019-03-08T04:02:49.477Z,19.31
2019-03-08T04:03:30.066Z,19.28
2019-03-08T04:04:10.714Z,19.28
2019-03-08T04:04:51.349Z,19.36
2019-03-08T04:05:31.941Z,19.26
2019-03-08T04:06:12.571Z,19.26
2019-03-08T04:06:53.183Z,19.26
2019-03-08T04:07:33.770Z,19.25
2019-03-08T04:08:14.375Z,19.21
2019-03-08T04:08:54.989Z,19.22
2019-03-08T04:09:35.577Z,19.26
2019-03-08T04:10:16.187Z,19.29
2019-03-08T04:10:56.786Z,19.18
2019-03-08T04:11:37.395Z,19.23
2019-03-08T04:12:18.011Z,19.22
2019-03-08T04:12:58.737Z,19.23
2019-03-08T04:13:39.364Z,19.22
2019-03-08T04:14:19.983Z,19.31
2019-03-08T04:15:00.594Z,19.19
2019-03-08T04:15:41.190Z,19.25
2019-03-08T04:16:21.788Z,19.28
2019-03-08T04:17:02.386Z,19.25
2019-03-08T04:17:42.986Z,19.22
2019-03-08T04:18:23.601Z,19.21
2019-03-08T04:19:04.181Z,19.29
2019-03-08T04:19:44.791Z,19.25
2019-03-08T04:20:25.377Z,19.25
2019-03-08T04:21:05.968Z,19.25
2019-03-08T04:21:46.569Z,19.28
2019-03-08T04:22:27.183Z,19.33
2019-03-08T04:23:07.779Z,19.23
2019-03-08T04:23:48.373Z,19.26
2019-03-08T04:24:30.564Z,19.22
2019-03-08T04:25:11.167Z,19.26
2019-03-08T04:25:51.771Z,19.23
2019-03-08T04:26:32.409Z,19.22
2019-03-08T04:27:13.044Z,19.29
2019-03-08T04:27:53.621Z,19.29
2019-03-08T04:28:34.228Z,19.29
2019-03-08T04:29:16.448Z,19.23
2019-03-08T04:29:57.041Z,19.29
2019-03-08T04:30:37.643Z,19.22
2019-03-08T04:31:18.230Z,19.32
2019-03-08T04:31:58.833Z,19.28
2019-03-08T04:32:39.429Z,19.28
2019-03-08T04:33:20.013Z,19.23
2019-03-08T04:34:00.652Z,19.21
2019-03-08T04:34:41.270Z,19.28
2019-03-08T04:35:21.885Z,19.19
2019-03-08T04:36:02.494Z,19.23
2019-03-08T04:36:43.087Z,19.22
2019-03-08T04:37:23.705Z,19.25
2019-03-08T04:38:10.060Z,19.22
2019-03-08T04:38:50.663Z,19.21
2019-03-08T04:39:31.269Z,19.29
2019-03-08T04:40:11.902Z,19.31
2019-03-08T04:40:52.521Z,19.22
2019-03-08T04:41:33.125Z,19.25
2019-03-08T04:42:13.726Z,19.22
2019-03-08T04:42:54.335Z,19.25
2019-03-08T04:43:34.943Z,19.26
2019-03-08T04:44:15.523Z,19.22
2019-03-08T04:44:56.116Z,19.16
2019-03-08T04:45:36.710Z,19.26
2019-03-08T04:46:17.307Z,19.28
2019-03-08T04:46:57.902Z,19.23
2019-03-08T04:47:38.500Z,19.22
2019-03-08T04:48:19.087Z,19.25
2019-03-08T04:48:59.668Z,19.19
2019-03-08T04:49:40.278Z,19.18
2019-03-08T04:50:20.870Z,19.16
2019-03-08T04:51:01.454Z,19.16
2019-03-08T04:51:43.791Z,19.19
2019-03-08T04:52:24.427Z,19.16
2019-03-08T04:53:05.043Z,19.23
2019-03-08T04:53:45.642Z,19.22
2019-03-08T04:54:26.234Z,19.19
2019-03-08T04:55:06.826Z,19.16
2019-03-08T04:55:47.457Z,19.19
2019-03-08T04:56:28.069Z,19.19
2019-03-08T04:57:08.661Z,19.18
2019-03-08T04:57:49.263Z,19.25
2019-03-08T04:58:31.462Z,19.16
2019-03-08T04:59:12.067Z,19.21
2019-03-08T04:59:52.687Z,19.19
2019-03-08T05:00:33.271Z,19.19
2019-03-08T05:01:13.867Z,19.19
2019-03-08T05:01:54.458Z,19.21
2019-03-08T05:02:35.057Z,19.19
2019-03-08T05:03:15.650Z,19.18
2019-03-08T05:03:56.263Z,19.22
2019-03-08T05:04:36.863Z,19.14
2019-03-08T05:05:17.457Z,19.11
2019-03-08T05:05:58.065Z,19.19
2019-03-08T05:06:40.580Z,19.14
2019-03-08T05:07:21.200Z,19.18
2019-03-08T05:08:01.795Z,19.18
2019-03-08T05:08:42.389Z,19.19
2019-03-08T05:09:22.999Z,19.14
2019-03-08T05:10:03.609Z,19.21
2019-03-08T05:10:44.213Z,19.23
2019-03-08T05:11:24.810Z,19.16
2019-03-08T05:12:05.401Z,19.22
2019-03-08T05:12:46.005Z,19.19
2019-03-08T05:13:26.623Z,19.13
2019-03-08T05:14:07.215Z,19.13
2019-03-08T05:14:47.817Z,19.22
2019-03-08T05:15:28.404Z,19.19
2019-03-08T05:16:09.003Z,19.14
2019-03-08T05:16:49.599Z,19.19
2019-03-08T05:17:30.203Z,19.19
2019-03-08T05:18:10.777Z,19.14
2019-03-08T05:18:51.413Z,19.13
2019-03-08T05:19:32.015Z,19.16
2019-03-08T05:20:12.609Z,19.13
2019-03-08T05:20:53.205Z,19.18
2019-03-08T05:21:33.787Z,19.18
2019-03-08T05:22:14.374Z,19.16
2019-03-08T05:22:55.011Z,19.23
2019-03-08T05:23:35.605Z,19.18
2019-03-08T05:24:16.194Z,19.14
2019-03-08T05:24:56.785Z,19.22
2019-03-08T05:25:37.380Z,19.13
2019-03-08T05:26:17.973Z,19.16
2019-03-08T05:27:00.445Z,19.13
2019-03-08T05:27:41.031Z,19.19
2019-03-08T05:28:21.624Z,19.16
2019-03-08T05:29:02.209Z,19.26
2019-03-08T05:29:42.807Z,19.26
2019-03-08T05:30:24.981Z,19.29
2019-03-08T05:31:05.591Z,19.18
2019-03-08T05:31:46.187Z,19.14
2019-03-08T05:32:26.777Z,19.16
2019-03-08T05:33:07.369Z,19.13
2019-03-08T05:33:47.965Z,19.22
2019-03-08T05:34:28.563Z,19.11
2019-03-08T05:35:09.163Z,19.26
2019-03-08T05:35:49.749Z,19.11
2019-03-08T05:36:30.355Z,19.16
2019-03-08T05:37:10.937Z,19.18
2019-03-08T05:37:51.525Z,19.14
2019-03-08T05:38:32.136Z,19.18
2019-03-08T05:39:12.722Z,19.23
2019-03-08T05:39:53.310Z,19.11
2019-03-08T05:40:33.913Z,19.14
2019-03-08T05:41:14.525Z,19.16
2019-03-08T05:41:55.113Z,19.18
2019-03-08T05:42:35.735Z,19.18
2019-03-08T05:43:17.995Z,19.13
2019-03-08T05:43:58.673Z,19.13
2019-03-08T05:44:39.272Z,19.11
2019-03-08T05:45:19.891Z,19.16
2019-03-08T05:46:00.479Z,19.13
2019-03-08T05:46:41.107Z,19.16
2019-03-08T05:47:21.734Z,19.11
2019-03-08T05:48:02.321Z,19.16
2019-03-08T05:48:42.919Z,19.16
2019-03-08T05:49:23.521Z,19.13
2019-03-08T05:50:04.150Z,19.13
2019-03-08T05:50:44.737Z,19.19
2019-03-08T05:51:27.223Z,19.23
2019-03-08T05:52:09.826Z,19.16
2019-03-08T05:52:50.419Z,19.1
2019-03-08T05:53:31.033Z,19.14
2019-03-08T05:54:13.466Z,19.11
2019-03-08T05:54:54.071Z,19.19
2019-03-08T05:55:35.764Z,19.19
2019-03-08T05:56:18.103Z,19.16
2019-03-08T05:56:58.689Z,19.16
2019-03-08T05:57:39.319Z,19.06
2019-03-08T05:58:19.965Z,19.16
2019-03-08T05:59:00.591Z,19.14
2019-03-08T05:59:42.841Z,19.06
2019-03-08T06:00:31.471Z,19.13
2019-03-08T06:01:04.003Z,19.02
2019-03-08T06:01:44.613Z,19.08
2019-03-08T06:02:25.207Z,19.04
2019-03-08T06:03:05.813Z,19.14
2019-03-08T06:03:46.415Z,19.11
2019-03-08T06:04:27.017Z,19.07
2019-03-08T06:05:07.623Z,19.14
2019-03-08T06:05:48.271Z,19.14
2019-03-08T06:06:28.877Z,19.13
2019-03-08T06:07:09.473Z,19.06
2019-03-08T06:07:50.067Z,19.13
2019-03-08T06:08:30.656Z,19.13
2019-03-08T06:09:11.271Z,19.19
2019-03-08T06:09:51.897Z,19.07
2019-03-08T06:10:32.477Z,19.14
2019-03-08T06:11:13.061Z,19
2019-03-08T06:11:54.892Z,19.11
2019-03-08T06:12:34.251Z,19.11
2019-03-08T06:13:14.837Z,19.19
2019-03-08T06:13:55.453Z,19.06
2019-03-08T06:14:36.051Z,19.13
2019-03-08T06:15:16.659Z,19.18
2019-03-08T06:15:57.251Z,19.11
2019-03-08T06:16:37.863Z,19.14
2019-03-08T06:17:18.487Z,19.04
2019-03-08T06:17:59.081Z,19.14
2019-03-08T06:18:39.687Z,19.18
2019-03-08T06:19:20.305Z,19.21
2019-03-08T06:20:00.935Z,19.1
2019-03-08T06:20:41.549Z,19.18
2019-03-08T06:21:22.153Z,19.11
2019-03-08T06:22:02.752Z,19.19
2019-03-08T06:22:43.343Z,19.14
2019-03-08T06:23:23.933Z,19.18
2019-03-08T06:24:04.561Z,19.16
2019-03-08T06:24:45.141Z,19.14
2019-03-08T06:25:25.784Z,19.14
2019-03-08T06:26:06.373Z,19.11
2019-03-08T06:26:46.960Z,19.1
2019-03-08T06:27:27.551Z,19.21
2019-03-08T06:28:08.161Z,19.19
2019-03-08T06:28:48.765Z,19.13
2019-03-08T06:29:29.375Z,19.1
2019-03-08T06:30:09.995Z,19.13
2019-03-08T06:30:50.594Z,19.1
2019-03-08T06:31:31.237Z,19.16
2019-03-08T06:32:11.825Z,19.16
2019-03-08T06:32:52.431Z,19.18
2019-03-08T06:33:33.030Z,19.1
2019-03-08T06:34:13.625Z,19.1
2019-03-08T06:34:54.206Z,19.13
2019-03-08T06:35:34.794Z,19.16
2019-03-08T06:36:15.397Z,19.13
2019-03-08T06:36:55.987Z,19.21
2019-03-08T06:37:36.584Z,19.11
2019-03-08T06:38:17.169Z,19.19
2019-03-08T06:38:57.769Z,19.14
2019-03-08T06:39:38.367Z,19.07
2019-03-08T06:40:18.969Z,19.13
2019-03-08T06:40:59.565Z,19.16
2019-03-08T06:41:40.178Z,19.21
2019-03-08T06:42:20.765Z,19.16
2019-03-08T06:43:01.381Z,19.14
2019-03-08T06:43:41.965Z,19.1
2019-03-08T06:44:22.561Z,19.23
2019-03-08T06:45:03.157Z,19.16
2019-03-08T06:45:43.757Z,19.21
2019-03-08T06:46:24.343Z,19.23
2019-03-08T06:47:04.943Z,19.19
2019-03-08T06:47:45.626Z,19.13
2019-03-08T06:48:26.207Z,19.18
2019-03-08T06:49:06.837Z,19.14
2019-03-08T06:49:47.439Z,19.1
2019-03-08T06:50:28.042Z,19.16
2019-03-08T06:51:08.653Z,19.14
2019-03-08T06:51:49.237Z,19.14
2019-03-08T06:52:29.844Z,19.1
2019-03-08T06:53:10.489Z,19.11
2019-03-08T06:53:51.085Z,19.11
2019-03-08T06:54:31.685Z,19.04
2019-03-08T06:55:12.298Z,19.18
2019-03-08T06:55:52.923Z,19.19
2019-03-08T06:56:33.537Z,19.1
2019-03-08T06:57:14.575Z,19.13
2019-03-08T06:57:55.175Z,19.19
2019-03-08T06:58:35.761Z,19.13
2019-03-08T06:59:16.377Z,19.16
2019-03-08T06:59:56.981Z,19.18
2019-03-08T07:00:37.607Z,19.26
2019-03-08T07:01:18.229Z,19.19
2019-03-08T07:01:58.835Z,19.16
2019-03-08T07:02:39.457Z,19.14
2019-03-08T07:03:20.042Z,19.23
2019-03-08T07:04:00.639Z,19.26
2019-03-08T07:04:41.229Z,19.25
2019-03-08T07:05:22.535Z,19.11
2019-03-08T07:06:03.127Z,19.22
2019-03-08T07:06:43.881Z,19.16
2019-03-08T07:07:24.663Z,19.26
2019-03-08T07:08:05.287Z,19.26
2019-03-08T07:08:45.883Z,19.13
2019-03-08T07:09:28.361Z,19.23
2019-03-08T07:10:08.960Z,19.23
2019-03-08T07:10:49.577Z,19.14
2019-03-08T07:11:30.228Z,19.26
2019-03-08T07:12:10.826Z,19.26
2019-03-08T07:12:51.419Z,19.23
2019-03-08T07:13:32.053Z,19.16
2019-03-08T07:14:12.848Z,19.16
2019-03-08T07:14:55.313Z,19.16
2019-03-08T07:15:35.920Z,19.26
2019-03-08T07:16:16.533Z,19.21
2019-03-08T07:16:57.141Z,19.21
2019-03-08T07:17:37.737Z,19.11
2019-03-08T07:18:18.330Z,19.21
2019-03-08T07:18:58.979Z,19.16
2019-03-08T07:19:40.834Z,19.18
2019-03-08T07:20:20.199Z,19.18
2019-03-08T07:21:00.802Z,19.21
2019-03-08T07:21:41.397Z,19.19
2019-03-08T07:22:21.983Z,19.19
2019-03-08T07:23:02.581Z,19.14
2019-03-08T07:23:43.167Z,19.22
2019-03-08T07:24:23.804Z,19.16
2019-03-08T07:25:04.373Z,19.13
2019-03-08T07:25:51.337Z,19.21
2019-03-08T07:26:25.674Z,19.23
2019-03-08T07:27:06.275Z,19.25
2019-03-08T07:27:46.875Z,19.22
2019-03-08T07:28:27.479Z,19.33
2019-03-08T07:29:08.115Z,19.32
2019-03-08T07:29:48.731Z,19.25
2019-03-08T07:30:29.323Z,19.36
2019-03-08T07:31:09.915Z,19.26
2019-03-08T07:31:50.525Z,19.36
2019-03-08T07:32:31.125Z,19.32
2019-03-08T07:33:11.725Z,19.31
2019-03-08T07:33:53.291Z,19.26
2019-03-08T07:34:32.937Z,19.39
2019-03-08T07:35:13.533Z,19.33
2019-03-08T07:35:54.137Z,19.41
2019-03-08T07:36:34.743Z,19.36
2019-03-08T07:37:15.329Z,19.39
2019-03-08T07:37:55.930Z,19.37
2019-03-08T07:38:36.535Z,19.39
2019-03-08T07:39:17.149Z,19.39
2019-03-08T07:39:57.747Z,19.39
2019-03-08T07:40:38.342Z,19.4
2019-03-08T07:41:18.972Z,19.36
2019-03-08T07:41:59.581Z,19.36
2019-03-08T07:42:40.183Z,19.41
2019-03-08T07:43:20.781Z,19.31
2019-03-08T07:44:01.382Z,19.31
2019-03-08T07:44:41.970Z,19.32
2019-03-08T07:45:22.579Z,19.32
2019-03-08T07:46:03.165Z,19.29
2019-03-08T07:46:43.767Z,19.28
2019-03-08T07:47:24.366Z,19.4
2019-03-08T07:48:04.960Z,19.26
2019-03-08T07:48:45.542Z,19.32
2019-03-08T07:49:26.127Z,19.28
2019-03-08T07:50:06.725Z,19.36
2019-03-08T07:50:49.157Z,19.26
2019-03-08T07:51:29.771Z,19.32
2019-03-08T07:52:10.388Z,19.26
2019-03-08T07:52:50.995Z,19.31
2019-03-08T07:53:31.588Z,19.33
2019-03-08T07:54:12.182Z,19.29
2019-03-08T07:54:53.296Z,19.33
2019-03-08T07:55:33.382Z,19.32
2019-03-08T07:56:13.991Z,19.31
2019-03-08T07:56:54.583Z,19.26
2019-03-08T07:57:35.177Z,19.25
2019-03-08T07:58:15.772Z,19.32
2019-03-08T07:58:56.362Z,19.31
2019-03-08T07:59:36.951Z,19.29
2019-03-08T08:00:17.559Z,19.25
2019-03-08T08:00:58.177Z,19.25
2019-03-08T08:01:38.773Z,19.32
2019-03-08T08:02:19.388Z,19.28
2019-03-08T08:03:03.440Z,19.28
2019-03-08T08:03:40.618Z,19.36
2019-03-08T08:04:21.203Z,19.31
2019-03-08T08:05:01.808Z,19.29
2019-03-08T08:05:42.425Z,19.26
2019-03-08T08:06:23.018Z,19.29
2019-03-08T08:07:03.622Z,19.26
2019-03-08T08:07:44.212Z,19.28
2019-03-08T08:08:24.831Z,19.29
2019-03-08T08:09:05.443Z,19.28
2019-03-08T08:09:46.047Z,19.26
2019-03-08T08:10:26.639Z,19.26
2019-03-08T08:11:07.247Z,19.28
2019-03-08T08:11:47.827Z,19.22
2019-03-08T08:12:28.465Z,19.29
2019-03-08T08:13:09.058Z,19.25
2019-03-08T08:13:49.658Z,19.26
2019-03-08T08:14:39.130Z,19.29
2019-03-08T08:15:10.903Z,19.29
2019-03-08T08:15:51.500Z,19.29
2019-03-08T08:16:32.108Z,19.26
2019-03-08T08:17:12.740Z,19.26
2019-03-08T08:17:53.346Z,19.32
2019-03-08T08:18:33.982Z,19.36
2019-03-08T08:19:14.592Z,19.19
2019-03-08T08:19:55.181Z,19.23
2019-03-08T08:20:35.772Z,19.29
2019-03-08T08:21:16.395Z,19.33
2019-03-08T08:21:57.038Z,19.23
2019-03-08T08:22:37.664Z,19.31
2019-03-08T08:23:19.806Z,19.29
2019-03-08T08:24:00.419Z,19.26
2019-03-08T08:24:41.008Z,19.29
2019-03-08T08:25:21.663Z,19.29
2019-03-08T08:26:02.269Z,19.29
2019-03-08T08:26:42.885Z,19.25
2019-03-08T08:27:23.485Z,19.29
2019-03-08T08:28:04.114Z,19.32
2019-03-08T08:28:49.795Z,19.26
2019-03-08T08:29:34.484Z,19.23
2019-03-08T08:30:05.972Z,19.21
2019-03-08T08:30:48.300Z,19.26
2019-03-08T08:31:28.908Z,19.23
2019-03-08T08:32:09.492Z,19.19
2019-03-08T08:32:50.107Z,19.31
2019-03-08T08:33:30.725Z,19.26
2019-03-08T08:34:11.325Z,19.31
2019-03-08T08:34:51.926Z,19.29
2019-03-08T08:35:32.526Z,19.23
2019-03-08T08:36:13.172Z,19.22
2019-03-08T08:36:53.727Z,19.25
2019-03-08T08:37:34.320Z,19.31
2019-03-08T08:38:14.919Z,19.22
2019-03-08T08:38:55.506Z,19.23
2019-03-08T08:39:36.116Z,19.25
2019-03-08T08:40:16.728Z,19.28
2019-03-08T08:40:57.327Z,19.23
2019-03-08T08:41:37.920Z,19.31
2019-03-08T08:42:18.529Z,19.28
2019-03-08T08:42:59.110Z,19.22
2019-03-08T08:43:39.762Z,19.28
2019-03-08T08:44:20.364Z,19.29
2019-03-08T08:45:00.962Z,19.26